Time;durP1;ratioP1;P1;durP2;ratioP2;P2;SDS_P1;SDS_P2;PMS_P1;PMS_P2;Temp;Humidity;BMP_temperature;BMP_pressure;BME280_temperature;BME280_humidity;BME280_pressure;Samples;Min_cycle;Max_cycle;Signal;HPM_P1;HPM_P2
2022/12/07 00:00:55;;;;;;;;;;;;;;;;;;5038702;28;19917;-77
2022/12/07 00:03:41;;;;;;;;;;;;;;;;;;5025908;28;19917;-75
2022/12/07 00:06:28;;;;;;;;;;;;;;;;;;5031412;28;19940;-78
2022/12/07 00:09:14;;;;;;;;;;;;;;;;;;5036968;28;19916;-76
2022/12/07 00:12:01;;;;;;;;;;;;;;;;;;5030012;28;20304;-77
2022/12/07 00:14:47;;;;;;;;;;;;;;;;;;5030485;28;19917;-77
2022/12/07 00:17:34;;;;;;;;;;;;;;;;;;5033892;28;19913;-76
2022/12/07 00:20:20;;;;;;;;;;;;;;;;;;5039561;28;19913;-77
2022/12/07 00:23:07;;;;;;;;;;;;;;;;;;5041679;28;19931;-77
2022/12/07 00:25:53;;;;;;;;;;;;;;;;;;5032857;28;19928;-76
2022/12/07 00:28:39;;;;;;;;;;;;;;;;;;5038057;28;19920;-76
2022/12/07 00:31:26;;;;;;;;;;;;;;;;;;5045633;28;19913;-79
2022/12/07 00:34:13;;;;;;;;;;;;;;;;;;5041394;28;20351;-78
2022/12/07 00:36:59;;;;;;;;;;;;;;;;;;5020051;28;19927;-77
2022/12/07 00:39:45;;;;;;;;;;;;;;;;;;5042870;28;19919;-78
2022/12/07 00:42:32;;;;;;;;;;;;;;;;;;5043546;28;19917;-77
2022/12/07 00:45:18;;;;;;;;;;;;;;;;;;5052991;28;20304;-78
2022/12/07 00:48:05;;;;;;;;;;;;;;;;;;5052581;28;19927;-79
2022/12/07 00:50:51;;;;;;;;;;;;;;;;;;5031028;28;19919;-77
2022/12/07 00:53:38;;;;;;;;;;;;;;;;;;5037591;28;19925;-77
2022/12/07 00:56:24;;;;;;;;;;;;;;;;;;5033840;28;19935;-76
2022/12/07 00:59:11;;;;;;;;;;;;;;;;;;5035241;28;20659;-76
2022/12/07 01:01:57;;;;;;;;;;;;;;;;;;5034276;28;19917;-81
2022/12/07 01:04:44;;;;;;;;;;;;;;;;;;5040111;28;19939;-77
2022/12/07 01:07:30;;;;;;;;;;;;;;;;;;5037359;28;20361;-77
2022/12/07 01:10:17;;;;;;;;;;;;;;;;;;5033950;28;19916;-75
2022/12/07 01:13:03;;;;;;;;;;;;;;;;;;5039650;28;19920;-74
2022/12/07 01:15:50;;;;;;;;;;;;;;;;;;5039893;28;19928;-75
2022/12/07 01:18:36;;;;;;;;;;;;;;;;;;5030587;28;19919;-75
2022/12/07 01:21:23;;;;;;;;;;;;;;;;;;5042329;28;19913;-77
2022/12/07 01:24:09;;;;;;;;;;;;;;;;;;5033916;28;19932;-77
2022/12/07 01:26:56;;;;;;;;;;;;;;;;;;5028867;28;19939;-76
2022/12/07 01:29:42;;;;;;;;;;;;;;;;;;5031654;28;19920;-77
2022/12/07 01:32:28;;;;;;;;;;;;;;;;;;5043197;28;19916;-75
2022/12/07 01:35:15;;;;;;;;;;;;;;;;;;5028067;28;19917;-77
2022/12/07 01:38:01;;;;;;;;;;;;;;;;;;5037820;28;19921;-77
2022/12/07 01:40:48;;;;;;;;;;;;;;;;;;5042899;28;19912;-76
2022/12/07 01:43:34;;;;;;;;;;;;;;;;;;5033662;28;19909;-75
2022/12/07 01:46:21;;;;;;;;;;;;;;;;;;5031573;28;19913;-74
2022/12/07 01:49:07;;;;;;;;;;;;;;;;;;5043853;28;19924;-75
2022/12/07 01:51:54;;;;;;;;;;;;;;;;;;5040102;28;19936;-76
2022/12/07 01:54:40;;;;;;;;;;;;;;;;;;5027127;28;19935;-75
2022/12/07 01:57:27;;;;;;;;;;;;;;;;;;5031671;28;19944;-76
2022/12/07 02:00:13;;;;;;;;;;;;;;;;;;5036160;28;19913;-76
2022/12/07 02:03:00;;;;;;;;;;;;;;;;;;5033986;28;19917;-77
2022/12/07 02:05:46;;;;;;;;;;;;;;;;;;5032677;28;19917;-76
2022/12/07 02:08:33;;;;;;;;;;;;;;;;;;5037449;28;19917;-75
2022/12/07 02:11:19;;;;;;;;;;;;;;;;;;5043591;28;19921;-74
2022/12/07 02:14:06;;;;;;;;;;;;;;;;;;5046153;28;20038;-75
2022/12/07 02:16:52;;;;;;;;;;;;;;;;;;5043076;28;19921;-77
2022/12/07 02:19:39;;;;;;;;;;;;;;;;;;5047556;28;19913;-76
2022/12/07 02:22:25;;;;;;;;;;;;;;;;;;5042182;28;20570;-77
2022/12/07 02:25:11;;;;;;;;;;;;;;;;;;5034690;28;19913;-78
2022/12/07 02:27:58;;;;;;;;;;;;;;;;;;5046226;28;19908;-79
2022/12/07 02:30:44;;;;;;;;;;;;;;;;;;5045505;28;19909;-77
2022/12/07 02:33:31;;;;;;;;;;;;;;;;;;5045420;28;19913;-79
2022/12/07 02:36:17;;;;;;;;;;;;;;;;;;5034372;28;20406;-78
2022/12/07 02:39:04;;;;;;;;;;;;;;;;;;5037422;28;19913;-76
2022/12/07 02:41:50;;;;;;;;;;;;;;;;;;5040523;28;19924;-77
2022/12/07 02:44:37;;;;;;;;;;;;;;;;;;5048949;28;19917;-77
2022/12/07 02:47:23;;;;;;;;;;;;;;;;;;5041655;28;19916;-77
2022/12/07 02:50:10;;;;;;;;;;;;;;;;;;5034780;28;19996;-77
2022/12/07 02:52:56;;;;;;;;;;;;;;;;;;5040576;28;19928;-76
2022/12/07 02:55:43;;;;;;;;;;;;;;;;;;5043742;28;19955;-77
2022/12/07 02:58:29;;;;;;;;;;;;;;;;;;5042370;28;19916;-76
2022/12/07 03:01:16;;;;;;;;;;;;;;;;;;5034302;28;19924;-77
2022/12/07 03:04:03;;;;;;;;;;;;;;;;;;5042888;28;19944;-76
2022/12/07 03:06:49;;;;;;;;;;;;;;;;;;5039983;28;19939;-76
2022/12/07 03:09:36;;;;;;;;;;;;;;;;;;5039528;28;19921;-76
2022/12/07 03:12:22;;;;;;;;;;;;;;;;;;5019216;28;19923;-77
2022/12/07 03:15:09;;;;;;;;;;;;;;;;;;5035816;28;19976;-75
2022/12/07 03:17:55;;;;;;;;;;;;;;;;;;5033636;28;19928;-76
2022/12/07 03:20:42;;;;;;;;;;;;;;;;;;5043930;28;19917;-76
2022/12/07 03:23:28;;;;;;;;;;;;;;;;;;5015534;28;19931;-75
2022/12/07 03:26:15;;;;;;;;;;;;;;;;;;5040657;28;20399;-75
2022/12/07 03:29:01;;;;;;;;;;;;;;;;;;5024331;28;19913;-75
2022/12/07 03:31:48;;;;;;;;;;;;;;;;;;5043292;28;19923;-77
2022/12/07 03:34:34;;;;;;;;;;;;;;;;;;5040325;28;19917;-77
2022/12/07 03:37:21;;;;;;;;;;;;;;;;;;5034749;28;19927;-75
2022/12/07 03:40:07;;;;;;;;;;;;;;;;;;5038606;28;19936;-76
2022/12/07 03:42:54;;;;;;;;;;;;;;;;;;5034890;28;20292;-76
2022/12/07 03:45:40;;;;;;;;;;;;;;;;;;5034136;28;19912;-76
2022/12/07 03:48:27;;;;;;;;;;;;;;;;;;5031104;28;19932;-77
2022/12/07 03:51:13;;;;;;;;;;;;;;;;;;5035714;28;19913;-75
2022/12/07 03:53:59;;;;;;;;;;;;;;;;;;5042108;28;19917;-76
2022/12/07 03:56:46;;;;;;;;;;;;;;;;;;5033893;28;19924;-76
2022/12/07 03:59:32;;;;;;;;;;;;;;;;;;5038112;28;20455;-76
2022/12/07 04:02:19;;;;;;;;;;;;;;;;;;5033714;28;19916;-77
2022/12/07 04:05:05;;;;;;;;;;;;;;;;;;5030377;28;19913;-77
2022/12/07 04:07:52;;;;;;;;;;;;;;;;;;5036944;28;20293;-77
2022/12/07 04:10:38;;;;;;;;;;;;;;;;;;5050864;28;19923;-76
2022/12/07 04:13:25;;;;;;;;;;;;;;;;;;5031401;28;19936;-77
2022/12/07 04:16:11;;;;;;;;;;;;;;;;;;5040563;28;19928;-75
2022/12/07 04:18:58;;;;;;;;;;;;;;;;;;5040507;28;19924;-76
2022/12/07 04:21:44;;;;;;;;;;;;;;;;;;5031507;28;19921;-78
2022/12/07 04:24:31;;;;;;;;;;;;;;;;;;5033771;28;19917;-76
2022/12/07 04:27:17;;;;;;;;;;;;;;;;;;5037330;28;19935;-77
2022/12/07 04:30:04;;;;;;;;;;;;;;;;;;5040155;28;19917;-77
2022/12/07 04:32:50;;;;;;;;;;;;;;;;;;5041133;28;19924;-77
2022/12/07 04:35:37;;;;;;;;;;;;;;;;;;5038655;28;19929;-77
2022/12/07 04:38:23;;;;;;;;;;;;;;;;;;5041136;28;20010;-76
2022/12/07 04:41:09;;;;;;;;;;;;;;;;;;5034331;28;19917;-76
2022/12/07 04:43:56;;;;;;;;;;;;;;;;;;5032450;28;20450;-74
2022/12/07 04:46:43;;;;;;;;;;;;;;;;;;5030474;28;19919;-75
2022/12/07 04:49:29;;;;;;;;;;;;;;;;;;5035531;28;19925;-75
2022/12/07 04:52:15;;;;;;;;;;;;;;;;;;5031469;28;19916;-77
2022/12/07 04:55:02;;;;;;;;;;;;;;;;;;5028941;28;19917;-75
2022/12/07 04:57:49;;;;;;;;;;;;;;;;;;5029843;28;20395;-75
2022/12/07 05:00:35;;;;;;;;;;;;;;;;;;5030479;28;19928;-74
2022/12/07 05:03:22;;;;;;;;;;;;;;;;;;5040765;28;19917;-76
2022/12/07 05:06:08;;;;;;;;;;;;;;;;;;5031963;28;19912;-75
2022/12/07 05:08:55;;;;;;;;;;;;;;;;;;5031149;28;19924;-76
2022/12/07 05:11:41;;;;;;;;;;;;;;;;;;5030139;28;19921;-76
2022/12/07 05:14:28;;;;;;;;;;;;;;;;;;5036163;28;19913;-75
2022/12/07 05:17:14;;;;;;;;;;;;;;;;;;5040554;28;20288;-76
2022/12/07 05:20:01;;;;;;;;;;;;;;;;;;5035485;28;19931;-79
2022/12/07 05:22:47;;;;;;;;;;;;;;;;;;5038315;28;19925;-76
2022/12/07 05:25:33;;;;;;;;;;;;;;;;;;5035674;28;19920;-75
2022/12/07 05:28:20;;;;;;;;;;;;;;;;;;5039263;28;20360;-74
2022/12/07 05:31:06;;;;;;;;;;;;;;;;;;5039821;28;19928;-77
2022/12/07 05:33:53;;;;;;;;;;;;;;;;;;5042353;28;19917;-76
2022/12/07 05:36:39;;;;;;;;;;;;;;;;;;5038820;28;19916;-76
2022/12/07 05:39:26;;;;;;;;;;;;;;;;;;5035956;28;19920;-76
2022/12/07 05:42:12;;;;;;;;;;;;;;;;;;5035697;28;19917;-76
2022/12/07 05:44:59;;;;;;;;;;;;;;;;;;5031899;28;20369;-76
2022/12/07 05:47:45;;;;;;;;;;;;;;;;;;5031054;28;19913;-75
2022/12/07 05:50:32;;;;;;;;;;;;;;;;;;5043789;28;19912;-76
2022/12/07 05:53:18;;;;;;;;;;;;;;;;;;5033777;28;19924;-74
2022/12/07 05:56:05;;;;;;;;;;;;;;;;;;5033258;28;19917;-75
2022/12/07 06:01:56;;;;;;;;;;;;;;;;;;5047603;28;19913;-75
2022/12/07 06:04:43;;;;;;;;;;;;;;;;;;5031055;28;20289;-78
2022/12/07 06:07:29;;;;;;;;;;;;;;;;;;5029971;28;20288;-77
2022/12/07 06:10:16;;;;;;;;;;;;;;;;;;5027872;28;19909;-80
2022/12/07 06:13:02;;;;;;;;;;;;;;;;;;5033212;28;19921;-75
2022/12/07 06:15:49;;;;;;;;;;;;;;;;;;5032556;28;19928;-76
2022/12/07 06:18:35;;;;;;;;;;;;;;;;;;5038536;28;19920;-76
2022/12/07 06:21:22;;;;;;;;;;;;;;;;;;5041066;28;19920;-76
2022/12/07 06:24:08;;;;;;;;;;;;;;;;;;5034385;28;19928;-78
2022/12/07 06:26:57;;;;;;;;;;;;;;;;;;5041492;28;20463;-76
2022/12/07 06:29:43;;;;;;;;;;;;;;;;;;5034336;28;19916;-76
2022/12/07 06:32:30;;;;;;;;;;;;;;;;;;5047814;28;19931;-76
2022/12/07 06:35:16;;;;;;;;;;;;;;;;;;5029973;28;19925;-76
2022/12/07 06:38:03;;;;;;;;;;;;;;;;;;5027232;28;19917;-75
2022/12/07 06:40:49;;;;;;;;;;;;;;;;;;5032248;28;20463;-75
2022/12/07 06:43:36;;;;;;;;;;;;;;;;;;5030216;28;20416;-76
2022/12/07 06:46:22;;;;;;;;;;;;;;;;;;5036449;28;19927;-75
2022/12/07 06:49:09;;;;;;;;;;;;;;;;;;5034973;28;19913;-78
2022/12/07 06:51:55;;;;;;;;;;;;;;;;;;5029137;28;19914;-76
2022/12/07 06:54:42;;;;;;;;;;;;;;;;;;5041476;28;19917;-76
2022/12/07 06:57:28;;;;;;;;;;;;;;;;;;5040498;28;19931;-77
2022/12/07 07:00:15;;;;;;;;;;;;;;;;;;5040634;28;19909;-75
2022/12/07 07:03:01;;;;;;;;;;;;;;;;;;5040815;28;19908;-80
2022/12/07 07:05:48;;;;;;;;;;;;;;;;;;5060401;28;19919;-79
2022/12/07 07:08:34;;;;;;;;;;;;;;;;;;5034292;28;19939;-77
2022/12/07 07:11:21;;;;;;;;;;;;;;;;;;5040583;28;19916;-81
2022/12/07 07:14:07;;;;;;;;;;;;;;;;;;5031800;28;19928;-80
2022/12/07 07:16:54;;;;;;;;;;;;;;;;;;5039569;28;19931;-78
2022/12/07 07:19:40;;;;;;;;;;;;;;;;;;5032468;28;20284;-80
2022/12/07 07:22:27;;;;;;;;;;;;;;;;;;5033271;28;19925;-78
2022/12/07 07:25:13;;;;;;;;;;;;;;;;;;5043487;28;19916;-78
2022/12/07 07:28:00;;;;;;;;;;;;;;;;;;5030870;28;19921;-80
2022/12/07 07:30:46;;;;;;;;;;;;;;;;;;5041981;28;19915;-79
2022/12/07 07:33:33;;;;;;;;;;;;;;;;;;5045815;28;20347;-79
2022/12/07 07:36:19;;;;;;;;;;;;;;;;;;5043330;28;19928;-79
2022/12/07 07:39:05;;;;;;;;;;;;;;;;;;5035355;28;19913;-81
2022/12/07 07:41:52;;;;;;;;;;;;;;;;;;5041649;28;20312;-80
2022/12/07 07:44:38;;;;;;;;;;;;;;;;;;5036749;28;20475;-80
2022/12/07 07:47:25;;;;;;;;;;;;;;;;;;5034441;28;19919;-79
2022/12/07 07:50:11;;;;;;;;;;;;;;;;;;5033549;28;19936;-79
2022/12/07 07:52:58;;;;;;;;;;;;;;;;;;5046260;28;19935;-78
2022/12/07 07:55:44;;;;;;;;;;;;;;;;;;5045787;28;19920;-78
2022/12/07 07:58:31;;;;;;;;;;;;;;;;;;5045722;28;19920;-78
2022/12/07 08:01:19;;;;;;;;;;;;;;;;;;5048484;28;19913;-77
2022/12/07 08:04:05;;;;;;;;;;;;;;;;;;5040644;28;20283;-80
2022/12/07 08:06:52;;;;;;;;;;;;;;;;;;5041817;28;19932;-78
2022/12/07 08:09:38;;;;;;;;;;;;;;;;;;5036137;28;19917;-78
2022/12/07 08:12:25;;;;;;;;;;;;;;;;;;5035583;28;19919;-79
2022/12/07 08:15:14;;;;;;;;;;;;;;;;;;5017883;28;19921;-79
2022/12/07 08:18:01;;;;;;;;;;;;;;;;;;5042094;28;19923;-82
2022/12/07 08:20:48;;;;;;;;;;;;;;;;;;5049843;28;19931;-79
2022/12/07 08:23:34;;;;;;;;;;;;;;;;;;5042710;28;19929;-79
2022/12/07 08:26:20;;;;;;;;;;;;;;;;;;5042754;28;20384;-79
2022/12/07 08:29:07;;;;;;;;;;;;;;;;;;5041794;28;19912;-78
2022/12/07 08:31:53;;;;;;;;;;;;;;;;;;5035435;28;19923;-78
2022/12/07 08:34:40;;;;;;;;;;;;;;;;;;5046012;28;19924;-78
2022/12/07 08:37:26;;;;;;;;;;;;;;;;;;5044855;28;19921;-78
2022/12/07 08:40:15;;;;;;;;;;;;;;;;;;5042190;28;19913;-80
2022/12/07 08:43:01;;;;;;;;;;;;;;;;;;5041848;28;19923;-78
2022/12/07 08:45:48;;;;;;;;;;;;;;;;;;5034134;28;19924;-79
2022/12/07 08:48:34;;;;;;;;;;;;;;;;;;5026629;28;19912;-79
2022/12/07 08:51:21;;;;;;;;;;;;;;;;;;5039788;28;19917;-81
2022/12/07 08:54:07;;;;;;;;;;;;;;;;;;5042326;28;20386;-79
2022/12/07 08:56:54;;;;;;;;;;;;;;;;;;5054622;28;19921;-79
2022/12/07 08:59:40;;;;;;;;;;;;;;;;;;5034133;28;20365;-80
2022/12/07 09:02:27;;;;;;;;;;;;;;;;;;5040795;28;19928;-79
2022/12/07 09:05:14;;;;;;;;;;;;;;;;;;5044554;28;19913;-79
2022/12/07 09:08:01;;;;;;;;;;;;;;;;;;5045836;28;19916;-80
2022/12/07 09:10:47;;;;;;;;;;;;;;;;;;5033257;28;20280;-78
2022/12/07 09:13:34;;;;;;;;;;;;;;;;;;5036641;28;19916;-80
2022/12/07 09:16:20;;;;;;;;;;;;;;;;;;5037568;28;19927;-79
2022/12/07 09:19:07;;;;;;;;;;;;;;;;;;5040553;28;19920;-79
2022/12/07 09:21:53;;;;;;;;;;;;;;;;;;5049020;28;19913;-80
2022/12/07 09:24:40;;;;;;;;;;;;;;;;;;5044856;28;19913;-80
2022/12/07 09:27:26;;;;;;;;;;;;;;;;;;5037516;28;19923;-79
2022/12/07 09:30:14;;;;;;;;;;;;;;;;;;5034869;28;19923;-78
2022/12/07 09:33:00;;;;;;;;;;;;;;;;;;5042338;28;19916;-79
2022/12/07 09:35:47;;;;;;;;;;;;;;;;;;5037877;28;19921;-79
2022/12/07 09:38:33;;;;;;;;;;;;;;;;;;5048616;28;19939;-79
2022/12/07 09:41:20;;;;;;;;;;;;;;;;;;5051149;28;20638;-78
2022/12/07 09:44:06;;;;;;;;;;;;;;;;;;5045480;28;19920;-79
2022/12/07 09:46:53;;;;;;;;;;;;;;;;;;5032221;28;19912;-78
2022/12/07 09:49:39;;;;;;;;;;;;;;;;;;5037044;28;19944;-79
2022/12/07 09:52:26;;;;;;;;;;;;;;;;;;5039280;28;20380;-80
2022/12/07 09:55:12;;;;;;;;;;;;;;;;;;5014136;28;19913;-80
2022/12/07 09:57:59;;;;;;;;;;;;;;;;;;5046635;28;19927;-79
2022/12/07 10:00:45;;;;;;;;;;;;;;;;;;5030536;28;19932;-80
2022/12/07 10:03:32;;;;;;;;;;;;;;;;;;5029642;28;19913;-80
2022/12/07 10:06:18;;;;;;;;;;;;;;;;;;5038804;28;19921;-80
2022/12/07 10:09:05;;;;;;;;;;;;;;;;;;5029100;28;19924;-79
2022/12/07 10:11:52;;;;;;;;;;;;;;;;;;5039159;28;19935;-79
2022/12/07 10:14:38;;;;;;;;;;;;;;;;;;5037633;28;20364;-81
2022/12/07 10:17:25;;;;;;;;;;;;;;;;;;5045462;28;20403;-80
2022/12/07 10:20:11;;;;;;;;;;;;;;;;;;5036395;28;19923;-78
2022/12/07 10:22:58;;;;;;;;;;;;;;;;;;5042241;28;19932;-78
2022/12/07 10:25:44;;;;;;;;;;;;;;;;;;5036226;28;19913;-80
2022/12/07 10:28:31;;;;;;;;;;;;;;;;;;5045248;28;19913;-79
2022/12/07 10:31:17;;;;;;;;;;;;;;;;;;5039350;28;19956;-79
2022/12/07 10:34:04;;;;;;;;;;;;;;;;;;5041621;28;19916;-79
2022/12/07 10:36:50;;;;;;;;;;;;;;;;;;5032350;28;19921;-79
2022/12/07 10:39:37;;;;;;;;;;;;;;;;;;5027471;28;20501;-78
2022/12/07 10:42:23;;;;;;;;;;;;;;;;;;5042303;28;19912;-79
2022/12/07 10:45:10;;;;;;;;;;;;;;;;;;5041762;28;19916;-79
2022/12/07 10:47:56;;;;;;;;;;;;;;;;;;5042310;28;19913;-79
2022/12/07 10:50:43;;;;;;;;;;;;;;;;;;5050582;28;19939;-79
2022/12/07 10:53:35;;;;;;;;;;;;;;;;;;5049740;28;19917;-79
2022/12/07 10:56:21;;;;;;;;;;;;;;;;;;5042161;28;19928;-79
2022/12/07 10:59:08;;;;;;;;;;;;;;;;;;5054439;28;19917;-79
2022/12/07 11:01:54;;;;;;;;;;;;;;;;;;5056633;28;19909;-80
2022/12/07 11:04:41;;;;;;;;;;;;;;;;;;5056155;28;19916;-78
2022/12/07 11:07:30;;;;;;;;;;;;;;;;;;5049648;28;19914;-79
2022/12/07 11:10:17;;;;;;;;;;;;;;;;;;5046887;28;19923;-79
2022/12/07 11:13:03;;;;;;;;;;;;;;;;;;5044209;28;19923;-77
2022/12/07 11:15:50;;;;;;;;;;;;;;;;;;5035657;28;19928;-79
2022/12/07 11:18:37;;;;;;;;;;;;;;;;;;5043459;28;19924;-80
2022/12/07 11:21:24;;;;;;;;;;;;;;;;;;5034828;28;19913;-80
2022/12/07 11:24:11;;;;;;;;;;;;;;;;;;5045101;28;19921;-79
2022/12/07 11:26:58;;;;;;;;;;;;;;;;;;5047638;28;19917;-80
2022/12/07 11:29:44;;;;;;;;;;;;;;;;;;5036880;28;20285;-79
2022/12/07 11:32:31;;;;;;;;;;;;;;;;;;5035322;28;19919;-80
2022/12/07 11:35:17;;;;;;;;;;;;;;;;;;5035266;28;19913;-79
2022/12/07 11:38:04;;;;;;;;;;;;;;;;;;5028391;28;20277;-81
2022/12/07 11:40:50;;;;;;;;;;;;;;;;;;5035506;28;19923;-80
2022/12/07 11:43:37;;;;;;;;;;;;;;;;;;5037253;28;19916;-79
2022/12/07 11:46:24;;;;;;;;;;;;;;;;;;5030108;28;19932;-81
2022/12/07 11:49:10;;;;;;;;;;;;;;;;;;5034276;28;19924;-79
2022/12/07 11:51:57;;;;;;;;;;;;;;;;;;5038336;28;19915;-78
2022/12/07 11:54:43;;;;;;;;;;;;;;;;;;5033566;28;19917;-87
2022/12/07 11:57:30;;;;;;;;;;;;;;;;;;5045633;28;19921;-84
2022/12/07 12:00:16;;;;;;;;;;;;;;;;;;5034196;28;19909;-83
2022/12/07 12:03:03;;;;;;;;;;;;;;;;;;5044022;28;19913;-84
2022/12/07 12:05:49;;;;;;;;;;;;;;;;;;5031509;28;19917;-83
2022/12/07 12:08:36;;;;;;;;;;;;;;;;;;5032654;28;19935;-83
2022/12/07 12:11:22;;;;;;;;;;;;;;;;;;5031334;28;20272;-83
2022/12/07 12:14:09;;;;;;;;;;;;;;;;;;5032780;28;19925;-83
2022/12/07 12:16:55;;;;;;;;;;;;;;;;;;5039682;28;19918;-84
2022/12/07 12:19:42;;;;;;;;;;;;;;;;;;5035608;28;20347;-83
2022/12/07 12:22:28;;;;;;;;;;;;;;;;;;5033251;28;19921;-82
2022/12/07 12:25:15;;;;;;;;;;;;;;;;;;5033784;28;19913;-84
2022/12/07 12:28:01;;;;;;;;;;;;;;;;;;5033006;28;20288;-84
2022/12/07 12:30:48;;;;;;;;;;;;;;;;;;5039144;28;19913;-83
2022/12/07 12:33:34;;;;;;;;;;;;;;;;;;5033515;28;19936;-83
2022/12/07 12:36:21;;;;;;;;;;;;;;;;;;5038678;28;19920;-84
2022/12/07 12:39:10;;;;;;;;;;;;;;;;;;5040187;28;19913;-84
2022/12/07 12:44:43;;;;;;;;;;;;;;;;;;5039422;28;19917;-84
2022/12/07 12:47:30;;;;;;;;;;;;;;;;;;5040551;28;20049;-84
2022/12/07 12:50:16;;;;;;;;;;;;;;;;;;5044941;28;19913;-84
2022/12/07 12:53:03;;;;;;;;;;;;;;;;;;5040243;28;20388;-84
2022/12/07 12:55:50;;;;;;;;;;;;;;;;;;5040160;28;19940;-83
2022/12/07 12:58:36;;;;;;;;;;;;;;;;;;5038928;28;19913;-83
2022/12/07 13:01:23;;;;;;;;;;;;;;;;;;5043642;28;19923;-84
2022/12/07 13:04:09;;;;;;;;;;;;;;;;;;5041867;28;19921;-83
2022/12/07 13:06:56;;;;;;;;;;;;;;;;;;5037763;28;19917;-84
2022/12/07 13:09:42;;;;;;;;;;;;;;;;;;5040920;28;19913;-83
2022/12/07 13:12:29;;;;;;;;;;;;;;;;;;5039518;28;19928;-85
2022/12/07 13:15:15;;;;;;;;;;;;;;;;;;5053740;28;19909;-83
2022/12/07 13:18:02;;;;;;;;;;;;;;;;;;5022135;28;20304;-84
2022/12/07 13:20:48;;;;;;;;;;;;;;;;;;5043601;28;19919;-83
2022/12/07 13:23:44;;;;;;;;;;;;;;;;;;5051518;28;20256;-83
2022/12/07 13:26:30;;;;;;;;;;;;;;;;;;5058829;28;19913;-84
2022/12/07 13:29:17;;;;;;;;;;;;;;;;;;5054390;28;19909;-83
2022/12/07 13:32:03;;;;;;;;;;;;;;;;;;5029721;28;19920;-84
2022/12/07 13:34:50;;;;;;;;;;;;;;;;;;5033116;28;19921;-83
2022/12/07 13:37:36;;;;;;;;;;;;;;;;;;5040012;28;19921;-83
2022/12/07 13:40:22;;;;;;;;;;;;;;;;;;5036925;28;19988;-84
2022/12/07 13:43:09;;;;;;;;;;;;;;;;;;5033846;28;19920;-85
2022/12/07 13:45:55;;;;;;;;;;;;;;;;;;5038303;28;19923;-83
2022/12/07 13:48:42;;;;;;;;;;;;;;;;;;5035412;28;19917;-83
2022/12/07 13:51:28;;;;;;;;;;;;;;;;;;5043604;28;20009;-83
2022/12/07 13:54:15;;;;;;;;;;;;;;;;;;5049695;28;19909;-82
2022/12/07 13:57:09;;;;;;;;;;;;;;;;;;5040768;28;19924;-82
2022/12/07 13:59:55;;;;;;;;;;;;;;;;;;5042203;28;19920;-82
2022/12/07 14:02:42;;;;;;;;;;;;;;;;;;5037063;28;19917;-82
2022/12/07 14:05:28;;;;;;;;;;;;;;;;;;5036825;28;20261;-82
2022/12/07 14:08:15;;;;;;;;;;;;;;;;;;5043967;28;19923;-80
2022/12/07 14:11:01;;;;;;;;;;;;;;;;;;5044760;28;19909;-82
2022/12/07 14:13:48;;;;;;;;;;;;;;;;;;5035895;28;20300;-83
2022/12/07 14:16:38;;;;;;;;;;;;;;;;;;5035432;28;19917;-82
2022/12/07 14:19:25;;;;;;;;;;;;;;;;;;5034294;28;19913;-82
2022/12/07 14:22:11;;;;;;;;;;;;;;;;;;5041642;28;19912;-81
2022/12/07 14:24:58;;;;;;;;;;;;;;;;;;5039813;28;20841;-83
2022/12/07 14:27:44;;;;;;;;;;;;;;;;;;5047537;28;19924;-81
2022/12/07 14:30:31;;;;;;;;;;;;;;;;;;5043980;28;20564;-84
2022/12/07 14:33:17;;;;;;;;;;;;;;;;;;5036172;28;19924;-83
2022/12/07 14:36:04;;;;;;;;;;;;;;;;;;5038698;28;19920;-85
2022/12/07 14:38:53;;;;;;;;;;;;;;;;;;5040314;28;19931;-83
2022/12/07 14:41:51;;;;;;;;;;;;;;;;;;5039754;28;19927;-82
2022/12/07 14:44:38;;;;;;;;;;;;;;;;;;5036377;28;19917;-83
2022/12/07 14:47:24;;;;;;;;;;;;;;;;;;5038894;28;19952;-83
2022/12/07 14:50:11;;;;;;;;;;;;;;;;;;5039809;28;20292;-82
2022/12/07 14:52:57;;;;;;;;;;;;;;;;;;5046377;28;19919;-83
2022/12/07 14:55:44;;;;;;;;;;;;;;;;;;5045634;28;19919;-83
2022/12/07 14:58:30;;;;;;;;;;;;;;;;;;5049047;28;19925;-83
2022/12/07 15:01:17;;;;;;;;;;;;;;;;;;5040535;28;20538;-83
2022/12/07 15:04:03;;;;;;;;;;;;;;;;;;5034064;28;19917;-82
2022/12/07 15:06:50;;;;;;;;;;;;;;;;;;5042365;28;19921;-82
2022/12/07 15:09:36;;;;;;;;;;;;;;;;;;5028601;28;19955;-83
2022/12/07 15:12:24;;;;;;;;;;;;;;;;;;5040501;28;19917;-81
2022/12/07 15:15:11;;;;;;;;;;;;;;;;;;5040667;28;20371;-85
2022/12/07 15:17:57;;;;;;;;;;;;;;;;;;5042711;28;19925;-83
2022/12/07 15:20:44;;;;;;;;;;;;;;;;;;5034250;28;19920;-82
2022/12/07 15:23:31;;;;;;;;;;;;;;;;;;5051410;28;19943;-82
2022/12/07 15:26:18;;;;;;;;;;;;;;;;;;5048202;28;19917;-83
2022/12/07 15:29:04;;;;;;;;;;;;;;;;;;5040077;28;19921;-82
2022/12/07 15:31:51;;;;;;;;;;;;;;;;;;5041372;28;19921;-83
2022/12/07 15:34:37;;;;;;;;;;;;;;;;;;5034564;28;20398;-83
2022/12/07 15:37:24;;;;;;;;;;;;;;;;;;5021502;28;19924;-80
2022/12/07 15:40:10;;;;;;;;;;;;;;;;;;5046454;28;19916;-78
2022/12/07 15:42:57;;;;;;;;;;;;;;;;;;5039800;28;19912;-79
2022/12/07 15:45:43;;;;;;;;;;;;;;;;;;5026918;28;19939;-82
2022/12/07 15:48:29;;;;;;;;;;;;;;;;;;5037525;28;19917;-82
2022/12/07 15:51:16;;;;;;;;;;;;;;;;;;5043012;28;19920;-80
2022/12/07 15:54:06;;;;;;;;;;;;;;;;;;5034245;28;19924;-81
2022/12/07 15:56:52;;;;;;;;;;;;;;;;;;5030168;28;20397;-80
2022/12/07 15:59:39;;;;;;;;;;;;;;;;;;5040092;28;19916;-79
2022/12/07 16:02:25;;;;;;;;;;;;;;;;;;5034471;28;19917;-80
2022/12/07 16:05:12;;;;;;;;;;;;;;;;;;5044916;28;20681;-80
2022/12/07 16:07:58;;;;;;;;;;;;;;;;;;5043062;28;19920;-80
2022/12/07 16:10:45;;;;;;;;;;;;;;;;;;5050093;28;19923;-80
2022/12/07 16:13:31;;;;;;;;;;;;;;;;;;5035155;28;19923;-82
2022/12/07 16:16:18;;;;;;;;;;;;;;;;;;5037249;28;19917;-82
2022/12/07 16:19:04;;;;;;;;;;;;;;;;;;5033143;28;19917;-79
2022/12/07 16:21:51;;;;;;;;;;;;;;;;;;5046267;28;20273;-79
2022/12/07 16:24:37;;;;;;;;;;;;;;;;;;5040504;28;19924;-79
2022/12/07 16:27:24;;;;;;;;;;;;;;;;;;5039260;28;19909;-77
2022/12/07 16:30:10;;;;;;;;;;;;;;;;;;5030677;28;19939;-78
2022/12/07 16:32:57;;;;;;;;;;;;;;;;;;5042163;28;19917;-79
2022/12/07 16:35:43;;;;;;;;;;;;;;;;;;5036255;28;19908;-79
2022/12/07 16:38:30;;;;;;;;;;;;;;;;;;5039643;28;19917;-80
2022/12/07 16:41:16;;;;;;;;;;;;;;;;;;5043354;28;19931;-80
2022/12/07 16:44:03;;;;;;;;;;;;;;;;;;5032642;28;19912;-78
2022/12/07 16:46:49;;;;;;;;;;;;;;;;;;5048890;28;19912;-78
2022/12/07 16:49:36;;;;;;;;;;;;;;;;;;5043482;28;19921;-78
2022/12/07 16:52:22;;;;;;;;;;;;;;;;;;5038138;28;19912;-79
2022/12/07 16:55:09;;;;;;;;;;;;;;;;;;5040267;28;19921;-79
2022/12/07 16:57:56;;;;;;;;;;;;;;;;;;5036591;28;19921;-80
2022/12/07 17:00:42;;;;;;;;;;;;;;;;;;5024469;28;20030;-79
2022/12/07 17:03:28;;;;;;;;;;;;;;;;;;5044033;28;19919;-77
2022/12/07 17:06:15;;;;;;;;;;;;;;;;;;5042289;28;19912;-78
2022/12/07 17:09:01;;;;;;;;;;;;;;;;;;5041382;28;19923;-78
2022/12/07 17:11:48;;;;;;;;;;;;;;;;;;5042544;28;19951;-79
2022/12/07 17:17:40;;;;;;;;;;;;;;;;;;5039585;28;19927;-78
2022/12/07 17:20:26;;;;;;;;;;;;;;;;;;5039713;28;19924;-78
2022/12/07 17:23:13;;;;;;;;;;;;;;;;;;5041379;28;19925;-77
2022/12/07 17:25:59;;;;;;;;;;;;;;;;;;5036898;28;19916;-77
2022/12/07 17:28:46;;;;;;;;;;;;;;;;;;5036996;28;20014;-77
2022/12/07 17:31:32;;;;;;;;;;;;;;;;;;5026729;28;19919;-79
2022/12/07 17:34:19;;;;;;;;;;;;;;;;;;5041902;28;19955;-78
2022/12/07 17:37:05;;;;;;;;;;;;;;;;;;5036409;28;19940;-78
2022/12/07 17:39:52;;;;;;;;;;;;;;;;;;5036571;28;19917;-78
2022/12/07 17:42:46;;;;;;;;;;;;;;;;;;5027691;28;20022;-77
2022/12/07 17:45:33;;;;;;;;;;;;;;;;;;5027515;28;19917;-78
2022/12/07 17:48:20;;;;;;;;;;;;;;;;;;5037451;28;19913;-76
2022/12/07 17:54:14;;;;;;;;;;;;;;;;;;5034746;28;19917;-76
2022/12/07 17:57:00;;;;;;;;;;;;;;;;;;5043567;28;19920;-77
2022/12/07 17:59:47;;;;;;;;;;;;;;;;;;5031439;28;20292;-75
2022/12/07 18:02:33;;;;;;;;;;;;;;;;;;5042243;28;19920;-77
2022/12/07 18:05:20;;;;;;;;;;;;;;;;;;5037993;28;19916;-77
2022/12/07 18:08:07;;;;;;;;;;;;;;;;;;5037716;28;19916;-76
2022/12/07 18:10:53;;;;;;;;;;;;;;;;;;5037095;28;19916;-79
2022/12/07 18:13:40;;;;;;;;;;;;;;;;;;5022820;28;20396;-78
2022/12/07 18:16:26;;;;;;;;;;;;;;;;;;5040772;28;19956;-78
2022/12/07 18:19:13;;;;;;;;;;;;;;;;;;5040191;28;20428;-76
2022/12/07 18:22:00;;;;;;;;;;;;;;;;;;5036371;28;19924;-77
2022/12/07 18:24:46;;;;;;;;;;;;;;;;;;5042950;28;19925;-77
2022/12/07 18:27:33;;;;;;;;;;;;;;;;;;5033641;28;19925;-77
2022/12/07 18:30:20;;;;;;;;;;;;;;;;;;5033475;28;20361;-76
2022/12/07 18:33:09;;;;;;;;;;;;;;;;;;5038833;28;19913;-76
2022/12/07 18:35:57;;;;;;;;;;;;;;;;;;5034641;28;19913;-75
2022/12/07 18:38:44;;;;;;;;;;;;;;;;;;5013172;28;20026;-76
2022/12/07 18:41:30;;;;;;;;;;;;;;;;;;5041902;28;19920;-77
2022/12/07 18:44:17;;;;;;;;;;;;;;;;;;5043128;28;19917;-76
2022/12/07 18:47:03;;;;;;;;;;;;;;;;;;5040746;28;19916;-77
2022/12/07 18:49:50;;;;;;;;;;;;;;;;;;5036018;28;19917;-77
2022/12/07 18:52:36;;;;;;;;;;;;;;;;;;5030334;28;19920;-76
2022/12/07 18:55:24;;;;;;;;;;;;;;;;;;5037123;28;19923;-76
2022/12/07 18:58:11;;;;;;;;;;;;;;;;;;5035089;28;20303;-78
2022/12/07 19:00:57;;;;;;;;;;;;;;;;;;5037068;28;20276;-77
2022/12/07 19:03:44;;;;;;;;;;;;;;;;;;5039435;28;19924;-78
2022/12/07 19:06:30;;;;;;;;;;;;;;;;;;5047520;28;19909;-76
2022/12/07 19:09:17;;;;;;;;;;;;;;;;;;5041583;28;19909;-76